Time;durP1;ratioP1;P1;durP2;ratioP2;P2;SDS_P1;SDS_P2;PMS_P1;PMS_P2;Temp;Humidity;BMP_temperature;BMP_pressure;BME280_temperature;BME280_humidity;BME280_pressure;Samples;Min_cycle;Max_cycle;Signal;HPM_P1;HPM_P2
2022/07/25 00:02:04;;;;;;;10.52;7.20;;;;;;;20.17;63.57;100002.84;10486835;28;20075;-73
2022/07/25 00:07:07;;;;;;;10.13;7.43;;;;;;;20.07;63.92;99973.03;10469308;28;20386;-74
2022/07/25 00:12:09;;;;;;;11.65;7.63;;;;;;;20.00;64.09;99950.28;10497426;28;20032;-74
2022/07/25 00:17:11;;;;;;;11.77;7.72;;;;;;;19.98;64.34;99952.97;10475522;28;20547;-74
2022/07/25 00:22:13;;;;;;;13.40;7.35;;;;;;;19.95;64.73;99955.75;10484299;28;20077;-73
2022/07/25 00:27:14;;;;;;;11.68;7.75;;;;;;;19.88;64.87;99928.53;10495208;28;20043;-75
2022/07/25 00:32:16;;;;;;;11.35;7.10;;;;;;;19.81;65.04;99916.38;10486058;28;20051;-73
2022/07/25 00:37:17;;;;;;;13.55;7.93;;;;;;;19.70;65.16;99882.19;10493789;28;20051;-74
2022/07/25 00:42:20;;;;;;;10.48;7.30;;;;;;;19.63;65.62;99858.56;10488682;28;20511;-73
2022/07/25 00:47:22;;;;;;;13.85;9.18;;;;;;;19.56;65.66;99840.22;10492601;28;20047;-73
2022/07/25 00:52:24;;;;;;;11.20;7.68;;;;;;;19.50;65.77;99829.81;10482008;28;20051;-73
2022/07/25 00:57:25;;;;;;;12.77;7.80;;;;;;;19.42;66.08;99795.53;10472553;28;20059;-73
2022/07/25 01:02:27;;;;;;;12.50;8.40;;;;;;;19.34;66.33;99780.81;10469413;28;20033;-73
2022/07/25 01:07:29;;;;;;;12.52;8.18;;;;;;;19.36;66.58;99801.06;10501905;28;20063;-74
2022/07/25 01:12:30;;;;;;;12.90;8.05;;;;;;;19.33;66.65;99800.31;10491773;28;20214;-73
2022/07/25 01:17:32;;;;;;;12.35;7.80;;;;;;;19.24;67.10;99765.19;10504057;28;20057;-73
2022/07/25 01:22:33;;;;;;;11.60;7.82;;;;;;;19.13;67.33;99727.56;10484797;28;20048;-73
2022/07/25 01:27:35;;;;;;;11.55;8.13;;;;;;;19.08;67.37;99716.28;10498811;28;20480;-74
2022/07/25 01:32:37;;;;;;;16.83;8.50;;;;;;;18.96;67.64;99676.88;10485015;28;20517;-74
2022/07/25 01:37:40;;;;;;;15.48;8.73;;;;;;;18.89;67.91;99657.69;10498201;28;20041;-73
2022/07/25 01:42:46;;;;;;;14.85;8.98;;;;;;;18.85;67.90;99659.56;10498538;28;20037;-73
2022/07/25 01:47:48;;;;;;;13.40;9.43;;;;;;;18.80;68.26;99642.94;10497883;28;20127;-74
2022/07/25 01:52:50;;;;;;;13.50;9.45;;;;;;;18.75;68.67;99628.97;10502448;28;20082;-73
2022/07/25 01:57:51;;;;;;;12.90;9.80;;;;;;;18.70;68.79;99617.66;10490220;28;20478;-74
2022/07/25 02:03:28;;;;;;;16.33;9.63;;;;;;;18.66;69.10;99619.56;10484985;28;20049;-73
2022/07/25 02:08:15;;;;;;;15.25;8.93;;;;;;;18.64;69.24;99608.13;10492914;28;20036;-72
2022/07/25 02:13:17;;;;;;;17.35;8.95;;;;;;;18.60;69.47;99602.97;10487623;28;20596;-74
2022/07/25 02:18:19;;;;;;;13.20;8.90;;;;;;;18.51;69.45;99578.53;10492218;28;20071;-73
2022/07/25 02:23:21;;;;;;;12.98;9.05;;;;;;;18.44;69.41;99558.47;10503514;28;20055;-72
2022/07/25 02:28:23;;;;;;;11.98;9.20;;;;;;;18.42;69.74;99543.53;10501080;28;20044;-74
2022/07/25 02:33:24;;;;;;;14.95;9.27;;;;;;;18.39;70.05;99549.81;10499629;28;20043;-74
2022/07/25 02:38:26;;;;;;;14.15;9.27;;;;;;;18.31;70.24;99522.72;10511509;28;20044;-74
2022/07/25 02:43:28;;;;;;;17.20;8.60;;;;;;;18.25;70.20;99501.72;10480281;28;20067;-74
2022/07/25 02:48:29;;;;;;;13.48;8.63;;;;;;;18.20;70.49;99494.78;10487237;28;20159;-73
2022/07/25 02:53:31;;;;;;;13.32;9.00;;;;;;;18.14;70.51;99473.81;10506185;28;20457;-73
2022/07/25 02:58:52;;;;;;;13.52;9.55;;;;;;;18.09;70.78;99461.66;10494589;28;20039;-73
2022/07/25 03:03:54;;;;;;;14.50;9.15;;;;;;;18.09;71.06;99464.28;10478355;28;20503;-74
2022/07/25 03:08:56;;;;;;;14.35;9.02;;;;;;;18.10;71.39;99485.44;10480590;28;20036;-73
2022/07/25 03:13:57;;;;;;;18.52;10.02;;;;;;;18.17;71.34;99516.09;10479725;28;20050;-73
2022/07/25 03:18:59;;;;;;;16.70;8.80;;;;;;;18.24;71.52;99547.69;10496066;28;20127;-73
2022/07/25 03:24:00;;;;;;;18.75;7.95;;;;;;;18.24;71.90;99552.97;10494186;28;20128;-73
2022/07/25 03:29:03;;;;;;;14.32;7.85;;;;;;;18.30;71.86;99584.56;10503866;28;20543;-73
2022/07/25 03:34:04;;;;;;;11.45;7.63;;;;;;;18.44;71.73;99645.06;10491485;28;20036;-73
2022/07/25 03:39:06;;;;;;;18.25;7.90;;;;;;;18.63;71.58;99725.72;10474208;28;20037;-74
2022/07/25 03:44:08;;;;;;;15.98;7.53;;;;;;;18.87;71.84;99838.09;10493352;28;20045;-73
2022/07/25 03:49:10;;;;;;;11.15;7.07;;;;;;;19.04;72.18;99906.50;10480010;28;20032;-74
2022/07/25 03:54:12;;;;;;;10.32;6.72;;;;;;;19.02;72.17;99907.47;10495679;28;20070;-72
2022/07/25 03:59:16;;;;;;;12.38;6.25;;;;;;;19.07;72.36;99926.78;10503113;28;20454;-73
2022/07/25 04:04:18;;;;;;;12.00;6.75;;;;;;;19.11;72.07;99938.16;10494700;28;20041;-73
2022/07/25 04:09:20;;;;;;;10.88;6.72;;;;;;;19.15;72.18;99961.88;10485102;28;20052;-73
2022/07/25 04:14:21;;;;;;;12.35;6.20;;;;;;;19.18;72.12;99972.41;10485919;28;20504;-74
2022/07/25 04:19:23;;;;;;;11.52;7.22;;;;;;;19.29;72.26;100013.66;10494344;28;20111;-73
2022/07/25 04:24:26;;;;;;;13.52;6.65;;;;;;;19.32;72.06;100033.03;10500497;28;20052;-73
2022/07/25 04:29:28;;;;;;;10.50;6.90;;;;;;;19.36;72.38;100049.72;10486876;28;20147;-73
2022/07/25 04:34:29;;;;;;;13.15;6.57;;;;;;;19.44;72.37;100084.84;10480603;28;20049;-73
2022/07/25 04:39:31;;;;;;;11.85;6.68;;;;;;;19.46;72.46;100101.63;10474253;28;20051;-73
2022/07/25 04:44:33;;;;;;;13.73;6.20;;;;;;;19.54;72.10;100134.09;10492696;28;20044;-73
2022/07/25 04:49:34;;;;;;;10.27;7.18;;;;;;;19.69;72.28;100182.34;10487509;28;20093;-73
2022/07/25 04:54:36;;;;;;;12.10;6.60;;;;;;;19.79;72.19;100236.97;10470167;28;20041;-73
2022/07/25 04:59:37;;;;;;;12.43;6.35;;;;;;;19.94;72.05;100296.75;10472052;28;20190;-72
2022/07/25 05:04:39;;;;;;;13.63;6.68;;;;;;;20.03;72.04;100335.47;10466837;28;20058;-73
2022/07/25 05:09:46;;;;;;;15.23;6.63;;;;;;;20.12;71.97;100369.75;10470924;28;20488;-74
2022/07/25 05:14:47;;;;;;;12.82;6.47;;;;;;;20.18;71.76;100396.16;10452232;28;20128;-73
2022/07/25 05:19:49;;;;;;;12.25;7.10;;;;;;;20.32;71.68;100448.91;10450061;28;20409;-72
2022/07/25 05:24:50;;;;;;;10.48;6.80;;;;;;;20.52;71.54;100532.56;10478905;28;20633;-72
2022/07/25 05:29:52;;;;;;;15.75;6.75;;;;;;;20.76;71.44;100627.69;10479299;28;20040;-72
2022/07/25 05:34:54;;;;;;;10.20;6.03;;;;;;;20.95;71.48;100702.56;10486479;28;20128;-71
2022/07/25 05:39:55;;;;;;;13.77;6.57;;;;;;;21.11;71.34;100764.25;10479735;28;20048;-71
2022/07/25 05:44:57;;;;;;;13.35;6.95;;;;;;;21.25;71.23;100813.59;10476213;28;20032;-70
2022/07/25 05:49:59;;;;;;;11.80;6.40;;;;;;;21.38;71.22;100865.59;10486282;28;20051;-70
2022/07/25 05:55:00;;;;;;;9.45;6.10;;;;;;;21.54;70.87;100924.69;10472892;28;20063;-70
2022/07/25 06:00:04;;;;;;;11.63;6.20;;;;;;;21.68;70.61;100982.97;10482566;28;20040;-71
2022/07/25 06:05:06;;;;;;;9.23;5.50;;;;;;;21.80;70.75;101019.06;10455793;28;20517;-72
2022/07/25 06:10:08;;;;;;;11.30;6.35;;;;;;;21.95;70.52;101084.44;10467961;28;20040;-71
2022/07/25 06:15:10;;;;;;;19.02;7.97;;;;;;;22.11;70.34;101143.59;10473628;28;20394;-70
2022/07/25 06:20:23;;;;;;;12.55;6.45;;;;;;;22.21;70.11;101175.31;10496308;28;20043;-72
2022/07/25 06:25:25;;;;;;;8.95;5.45;;;;;;;22.33;70.01;101223.97;10486346;28;20119;-72
2022/07/25 06:30:27;;;;;;;12.15;5.93;;;;;;;22.52;69.70;101288.41;10494695;28;20046;-72
2022/07/25 06:35:28;;;;;;;9.80;5.60;;;;;;;22.85;69.76;101428.19;10478429;28;20066;-71
2022/07/25 06:40:30;;;;;;;12.52;5.65;;;;;;;23.18;69.45;101556.53;10480635;28;20520;-72
2022/07/25 06:45:32;;;;;;;9.60;5.55;;;;;;;23.48;69.31;101669.84;10471707;28;20045;-72
2022/07/25 06:50:34;;;;;;;8.90;5.60;;;;;;;23.75;69.05;101776.16;10478628;28;20468;-72
2022/07/25 06:55:35;;;;;;;11.95;5.55;;;;;;;23.87;68.53;101805.38;10473962;28;20090;-72
2022/07/25 07:00:37;;;;;;;10.57;6.07;;;;;;;24.14;68.44;101916.22;10488342;28;20075;-72
2022/07/25 07:05:40;;;;;;;9.48;5.53;;;;;;;24.15;68.29;101912.59;10478969;28;20076;-72
2022/07/25 07:10:41;;;;;;;13.18;5.85;;;;;;;24.55;68.28;102062.56;10464690;28;20072;-72
2022/07/25 07:15:45;;;;;;;14.93;6.22;;;;;;;24.66;67.46;102092.69;10447692;28;20107;-72
2022/07/25 07:20:48;;;;;;;10.93;6.13;;;;;;;24.88;67.38;102174.34;10483176;28;20454;-72
2022/07/25 07:25:49;;;;;;;9.90;5.30;;;;;;;25.70;67.22;102507.84;10475723;28;20056;-72
2022/07/25 07:30:51;;;;;;;10.52;5.53;;;;;;;26.24;66.67;102718.91;10484803;28;20781;-72
2022/07/25 07:36:13;;;;;;;11.02;5.20;;;;;;;25.97;66.52;102569.91;10470713;28;20114;-72
2022/07/25 07:41:14;;;;;;;10.52;6.13;;;;;;;26.00;66.15;102559.19;10482622;28;20044;-71
2022/07/25 07:46:16;;;;;;;10.32;6.05;;;;;;;26.08;65.46;102567.97;10487752;28;20120;-71
2022/07/25 07:51:17;;;;;;;15.07;5.05;;;;;;;26.48;65.26;102716.66;10480659;28;20156;-72
2022/07/25 07:56:19;;;;;;;14.20;6.43;;;;;;;27.36;64.75;103072.59;10465597;28;20122;-72
2022/07/25 08:01:21;;;;;;;12.00;6.00;;;;;;;27.99;64.24;103305.69;10465872;28;20146;-71
2022/07/25 08:06:22;;;;;;;13.35;6.13;;;;;;;28.31;63.57;103392.25;10477496;28;20151;-72
2022/07/25 08:11:25;;;;;;;14.68;6.22;;;;;;;28.43;62.74;103412.72;10479356;28;20068;-71
2022/07/25 08:16:26;;;;;;;9.93;5.93;;;;;;;28.51;62.17;103394.59;10479772;28;20129;-71
2022/07/25 08:21:28;;;;;;;11.85;5.95;;;;;;;28.09;61.85;103176.25;10479656;28;20052;-73
2022/07/25 08:26:32;;;;;;;8.85;5.32;;;;;;;28.56;61.21;103341.50;10474337;28;20780;-72
2022/07/25 08:31:34;;;;;;;12.18;5.35;;;;;;;28.51;60.49;103276.94;10469249;28;20127;-73
2022/07/25 08:36:35;;;;;;;9.23;5.38;;;;;;;28.96;60.05;103435.16;10473547;28;20568;-72
2022/07/25 08:41:40;;;;;;;10.75;4.93;;;;;;;29.08;59.33;103443.00;10475006;28;20053;-72
2022/07/25 08:46:42;;;;;;;9.40;4.25;;;;;;;29.42;58.95;103554.81;10462564;28;20072;-73
2022/07/25 08:51:45;;;;;;;8.45;4.20;;;;;;;30.04;58.25;103784.13;10454311;28;20060;-72
2022/07/25 08:56:46;;;;;;;9.38;4.50;;;;;;;29.70;57.85;103582.16;10473912;28;20043;-73
2022/07/25 09:01:48;;;;;;;9.02;4.45;;;;;;;29.27;57.16;103348.25;10443689;28;20048;-73
2022/07/25 09:06:50;;;;;;;8.73;4.55;;;;;;;29.00;56.60;103204.94;10461747;28;20040;-73
2022/07/25 09:11:52;;;;;;;8.30;4.50;;;;;;;29.44;56.12;103359.56;10476105;28;20501;-73
2022/07/25 09:16:54;;;;;;;7.13;4.20;;;;;;;29.68;55.78;103429.22;10464844;28;20135;-73
2022/07/25 09:22:07;;;;;;;9.60;4.50;;;;;;;29.82;55.48;103447.88;10475550;28;20149;-73
2022/07/25 09:27:11;;;;;;;7.20;4.30;;;;;;;29.99;55.03;103482.59;10478055;28;20222;-73
2022/07/25 09:32:18;;;;;;;8.20;4.20;;;;;;;30.14;54.60;103522.75;10445140;28;20041;-73
2022/07/25 09:37:25;;;;;;;7.32;4.80;;;;;;;30.07;53.99;103449.09;10447063;28;20048;-73
2022/07/25 09:42:28;;;;;;;8.95;5.00;;;;;;;30.25;53.64;103493.69;10453817;28;20454;-72
2022/07/25 09:47:31;;;;;;;8.40;4.30;;;;;;;29.95;53.24;103334.13;10460167;28;20441;-73
2022/07/25 09:52:34;;;;;;;8.30;4.18;;;;;;;30.01;52.83;103326.78;10467839;28;20465;-73
2022/07/25 09:57:37;;;;;;;9.57;5.18;;;;;;;30.04;52.42;103305.06;10446889;28;20085;-73
2022/07/25 10:02:54;;;;;;;10.60;4.65;;;;;;;30.20;52.37;103349.69;10467181;28;20071;-73
2022/07/25 10:07:56;;;;;;;8.52;4.40;;;;;;;29.86;52.05;103179.50;10453589;28;20940;-73
2022/07/25 10:13:28;;;;;;;9.77;4.47;;;;;;;29.57;51.81;103038.97;10455485;28;20417;-73
2022/07/25 10:18:30;;;;;;;9.30;4.80;;;;;;;29.94;51.58;103175.69;10441569;28;20176;-72
2022/07/25 10:23:32;;;;;;;9.00;5.22;;;;;;;30.27;51.57;103280.19;10419389;28;20041;-73
2022/07/25 10:28:45;;;;;;;10.13;4.60;;;;;;;30.68;51.36;103434.97;10465856;28;20132;-73
2022/07/25 10:33:58;;;;;;;8.55;4.40;;;;;;;30.60;51.09;103369.44;10466778;28;20045;-72
2022/07/25 10:39:00;;;;;;;8.73;4.80;;;;;;;30.94;50.85;103484.78;10456261;28;20072;-72
2022/07/25 10:44:02;;;;;;;9.07;4.25;;;;;;;31.03;50.48;103500.78;10454357;28;20131;-73
2022/07/25 10:49:06;;;;;;;8.77;4.70;;;;;;;30.47;50.19;103221.06;10475426;28;20064;-73
2022/07/25 10:54:14;;;;;;;11.55;5.13;;;;;;;29.65;50.10;102868.72;10470703;28;20063;-73
2022/07/25 10:59:36;;;;;;;8.70;4.97;;;;;;;29.98;49.98;102990.13;10477735;28;20050;-73
2022/07/25 11:04:38;;;;;;;9.15;5.22;;;;;;;30.78;49.77;103306.72;10449421;28;20504;-73
2022/07/25 11:09:42;;;;;;;8.50;5.05;;;;;;;30.73;49.60;103249.19;10467597;28;20609;-73
2022/07/25 11:14:44;;;;;;;7.55;4.78;;;;;;;29.84;49.63;102860.06;10472617;28;20112;-73
2022/07/25 11:19:57;;;;;;;9.45;5.32;;;;;;;29.31;49.46;102635.00;10469261;28;20190;-73
2022/07/25 11:25:00;;;;;;;11.32;4.93;;;;;;;29.07;49.30;102532.38;10452404;28;20816;-73
2022/07/25 11:30:07;;;;;;;9.52;5.57;;;;;;;28.99;49.59;102490.41;10444628;28;20525;-73
2022/07/25 11:35:10;;;;;;;9.68;5.30;;;;;;;29.07;49.79;102528.78;10476193;28;20547;-72
2022/07/25 11:40:15;;;;;;;11.85;5.68;;;;;;;29.20;49.60;102577.78;10474400;28;20128;-73
2022/07/25 11:45:38;;;;;;;9.88;5.80;;;;;;;29.89;49.62;102860.78;10450060;28;20410;-73
2022/07/25 11:50:43;;;;;;;13.93;6.78;;;;;;;29.74;49.81;102787.44;10488118;28;20052;-72
2022/07/25 11:55:45;;;;;;;10.65;7.40;;;;;;;29.37;49.74;102631.25;10482319;28;20036;-74
2022/07/25 12:00:49;;;;;;;17.05;8.00;;;;;;;29.69;49.92;102757.00;10454844;28;20115;-74
2022/07/25 12:05:50;;;;;;;11.82;7.72;;;;;;;29.58;50.20;102703.38;10470494;28;20115;-74
2022/07/25 12:10:54;;;;;;;16.58;8.30;;;;;;;29.55;50.50;102695.38;10459612;28;20528;-74
2022/07/25 12:15:58;;;;;;;13.80;8.55;;;;;;;29.21;50.42;102544.53;10492643;28;20054;-74
2022/07/25 12:21:00;;;;;;;13.23;8.43;;;;;;;28.84;50.58;102394.75;10472491;28;20066;-74
2022/07/25 12:26:01;;;;;;;12.32;8.80;;;;;;;28.97;50.79;102444.63;10477819;28;20236;-74
2022/07/25 12:31:03;;;;;;;15.93;9.52;;;;;;;28.57;50.59;102276.19;10457100;28;20048;-74
2022/07/25 12:36:05;;;;;;;15.98;8.30;;;;;;;28.60;51.07;102294.97;10476927;28;20075;-74
2022/07/25 12:41:09;;;;;;;17.83;6.88;;;;;;;28.69;50.86;102331.47;10465480;28;20045;-74
2022/07/25 12:46:18;;;;;;;9.88;4.68;;;;;;;28.60;50.86;102289.59;10478535;28;20394;-74
2022/07/25 12:51:19;;;;;;;6.30;3.47;;;;;;;28.30;50.90;102163.09;10492526;28;20058;-74
2022/07/25 12:56:21;;;;;;;13.63;3.20;;;;;;;27.50;51.10;101834.94;10479292;28;20119;-74
2022/07/25 13:01:22;;;;;;;6.72;3.60;;;;;;;26.90;51.19;101593.47;10474493;28;20583;-74
2022/07/25 13:06:24;;;;;;;6.88;3.33;;;;;;;26.52;50.77;101444.50;10471385;28;20056;-74
2022/07/25 13:11:25;;;;;;;7.28;3.15;;;;;;;26.09;50.90;101277.97;10486761;28;20041;-75
2022/07/25 13:16:27;;;;;;;5.15;3.17;;;;;;;24.98;51.71;100842.78;10483562;28;20045;-74
2022/07/25 13:21:29;;;;;;;10.95;3.67;;;;;;;24.17;51.56;100543.72;10484910;28;20420;-73
2022/07/25 13:26:32;;;;;;;8.50;3.85;;;;;;;23.76;52.44;100406.44;10495258;28;20116;-74
2022/07/25 13:31:34;;;;;;;8.30;4.03;;;;;;;23.44;52.74;100300.03;10485408;28;20523;-75
2022/07/25 13:36:37;;;;;;;10.30;4.35;;;;;;;23.25;53.26;100251.03;10487776;28;20046;-76
2022/07/25 13:41:38;;;;;;;12.55;4.40;;;;;;;23.17;54.14;100250.53;10474141;28;20140;-76
2022/07/25 13:46:41;;;;;;;9.15;5.00;;;;;;;23.14;54.72;100253.31;10458140;28;20043;-76
2022/07/25 13:51:46;;;;;;;8.13;4.63;;;;;;;23.28;55.39;100339.94;10475138;28;20044;-76
2022/07/25 13:56:48;;;;;;;11.23;5.43;;;;;;;23.58;56.02;100481.13;10451098;28;20036;-75
2022/07/25 14:01:49;;;;;;;9.32;4.10;;;;;;;23.76;57.01;100581.06;10461381;28;20048;-77
2022/07/25 14:06:51;;;;;;;11.32;3.97;;;;;;;23.85;57.31;100632.44;10447541;28;20041;-77
2022/07/25 14:11:53;;;;;;;6.95;3.50;;;;;;;23.85;57.92;100653.81;10452498;28;20045;-77
2022/07/25 14:16:54;;;;;;;8.30;3.45;;;;;;;23.67;58.48;100599.28;10496685;28;20061;-76
2022/07/25 14:21:56;;;;;;;6.00;3.17;;;;;;;23.41;59.00;100510.38;10455680;28;20047;-76
2022/07/25 16:07:45;;;;;;;7.43;2.20;;;;;;;22.88;63.21;100479.47;10507104;27;20140;-74
2022/07/25 16:12:47;;;;;;;10.35;2.60;;;;;;;22.74;63.14;100422.19;10515859;28;20044;-73
2022/07/25 16:17:50;;;;;;;6.93;2.42;;;;;;;22.46;63.14;100304.13;10508862;28;20051;-74
2022/07/25 16:22:54;;;;;;;9.23;3.08;;;;;;;22.33;63.24;100259.28;10515386;28;20071;-73
2022/07/25 16:27:58;;;;;;;9.35;2.55;;;;;;;22.06;63.23;100150.13;10511949;28;20666;-73
2022/07/25 16:32:59;;;;;;;9.80;3.40;;;;;;;22.00;63.01;100134.38;10507189;28;20036;-73
2022/07/25 16:38:01;;;;;;;9.43;2.88;;;;;;;22.13;63.03;100187.19;10503132;28;20052;-73
2022/07/25 16:43:02;;;;;;;11.57;2.72;;;;;;;22.58;63.04;100381.03;10503967;28;20041;-72
2022/07/25 16:48:04;;;;;;;11.95;3.20;;;;;;;22.77;62.98;100456.78;10510999;28;20044;-72
2022/07/25 16:53:06;;;;;;;6.22;2.78;;;;;;;22.94;63.05;100528.19;10514738;28;20044;-72
2022/07/25 16:58:08;;;;;;;7.45;2.50;;;;;;;22.93;63.05;100521.09;10506303;28;20071;-72
2022/07/25 17:03:09;;;;;;;9.10;2.60;;;;;;;22.95;63.01;100535.28;10513975;28;20158;-72
2022/07/25 17:08:11;;;;;;;8.45;2.45;;;;;;;23.15;63.04;100618.22;10524386;28;20529;-73
2022/07/25 17:13:13;;;;;;;10.38;2.35;;;;;;;23.07;62.92;100586.44;10515093;28;20044;-73
2022/07/25 17:18:14;;;;;;;6.45;1.98;;;;;;;23.32;62.85;100681.72;10490229;28;20127;-72
2022/07/25 17:23:16;;;;;;;10.20;2.45;;;;;;;23.61;62.96;100811.53;10486634;28;20423;-72
2022/07/25 17:28:18;;;;;;;10.05;2.78;;;;;;;23.27;62.77;100663.19;10485994;28;20033;-72
2022/07/25 17:33:19;;;;;;;11.80;2.40;;;;;;;23.05;62.82;100569.63;10485423;28;20036;-72
2022/07/25 17:38:21;;;;;;;9.00;2.45;;;;;;;22.97;62.71;100537.88;10485439;28;20044;-72
2022/07/25 17:43:28;;;;;;;9.18;2.25;;;;;;;22.96;62.56;100538.81;10481520;28;20411;-72
2022/07/25 17:48:29;;;;;;;5.82;2.20;;;;;;;22.92;62.42;100523.81;10480712;28;20048;-72
2022/07/25 17:53:31;;;;;;;10.85;2.15;;;;;;;22.90;62.44;100521.22;10472629;28;20405;-73
2022/07/25 17:58:33;;;;;;;7.47;1.98;;;;;;;22.77;62.49;100464.78;10484540;28;20051;-73
2022/07/25 18:03:35;;;;;;;6.78;1.90;;;;;;;22.64;62.14;100407.47;10477084;28;20074;-73
2022/07/25 18:08:36;;;;;;;10.20;2.03;;;;;;;22.50;61.90;100341.28;10477525;28;20052;-72
2022/07/25 18:13:38;;;;;;;8.63;1.75;;;;;;;22.33;61.88;100275.28;10464481;28;20047;-72
2022/07/25 18:18:39;;;;;;;6.32;1.60;;;;;;;22.14;61.53;100186.28;10474862;28;20044;-73
2022/07/25 18:23:41;;;;;;;7.15;1.50;;;;;;;21.93;61.50;100111.56;10466666;28;20112;-72
2022/07/25 18:28:43;;;;;;;8.60;1.55;;;;;;;21.75;61.28;100037.72;10468219;28;20048;-73
2022/07/25 18:33:45;;;;;;;14.32;1.98;;;;;;;21.55;61.00;99951.50;10473997;28;20139;-72
2022/07/25 18:38:46;;;;;;;11.18;1.60;;;;;;;21.36;61.29;99879.47;10475163;28;20069;-73
2022/07/25 18:43:49;;;;;;;8.57;1.60;;;;;;;21.22;60.92;99818.81;10461316;28;20032;-73
2022/07/25 18:48:51;;;;;;;8.70;1.50;;;;;;;21.07;60.73;99769.75;10481979;28;20052;-72
2022/07/25 18:53:54;;;;;;;3.67;1.40;;;;;;;20.90;60.85;99701.31;10475939;28;20028;-72
2022/07/25 18:58:56;;;;;;;8.32;1.90;;;;;;;20.76;60.67;99647.81;10482396;28;20119;-73
2022/07/25 19:03:57;;;;;;;8.15;2.00;;;;;;;20.62;60.65;99606.69;10481014;28;20045;-73
2022/07/25 19:08:59;;;;;;;11.32;1.50;;;;;;;20.51;60.57;99557.56;10481183;28;20451;-72
2022/07/25 19:14:01;;;;;;;5.88;1.60;;;;;;;20.39;60.78;99516.44;10481371;28;20411;-72
2022/07/25 19:19:02;;;;;;;7.15;1.60;;;;;;;20.24;60.96;99460.34;10481906;28;20095;-72
2022/07/25 19:24:05;;;;;;;6.45;1.83;;;;;;;20.07;60.58;99405.31;10480954;28;20037;-73
2022/07/25 19:29:08;;;;;;;9.02;1.98;;;;;;;19.98;60.94;99372.94;10480704;28;20048;-73
2022/07/25 19:34:10;;;;;;;7.97;1.70;;;;;;;19.87;60.93;99333.59;10480474;28;20127;-72
2022/07/25 19:39:13;;;;;;;8.82;1.48;;;;;;;19.78;61.12;99314.47;10494599;28;20054;-73
2022/07/25 19:44:14;;;;;;;6.25;1.42;;;;;;;19.72;60.87;99296.09;10480100;28;20086;-72
2022/07/25 19:49:16;;;;;;;6.90;1.30;;;;;;;19.76;61.06;99318.09;10479873;28;20407;-73
2022/07/25 19:54:18;;;;;;;7.32;1.98;;;;;;;19.78;61.35;99340.16;10480443;28;20044;-73
2022/07/25 19:59:19;;;;;;;7.80;1.60;;;;;;;19.80;61.36;99342.75;10476392;28;20082;-72
2022/07/25 20:04:21;;;;;;;7.47;1.60;;;;;;;19.81;61.59;99363.06;10479922;28;20052;-73
2022/07/25 20:09:23;;;;;;;7.35;1.33;;;;;;;19.78;61.39;99350.78;10480638;28;20055;-72
2022/07/25 20:14:25;;;;;;;7.45;1.30;;;;;;;19.74;61.63;99351.81;10481514;28;20116;-72
2022/07/25 20:19:26;;;;;;;9.77;1.20;;;;;;;19.73;61.83;99339.47;10481369;28;20948;-73
2022/07/25 20:24:29;;;;;;;6.70;1.27;;;;;;;19.71;61.88;99346.63;10482548;28;20412;-73
2022/07/25 20:29:30;;;;;;;7.38;1.40;;;;;;;19.65;61.53;99330.97;10482455;28;20044;-72
2022/07/25 20:34:32;;;;;;;6.90;1.38;;;;;;;19.66;61.76;99327.41;10487034;28;20393;-73
2022/07/25 20:39:34;;;;;;;5.35;1.38;;;;;;;19.63;61.75;99332.84;10480642;28;20338;-73
2022/07/25 20:44:35;;;;;;;10.02;1.55;;;;;;;19.56;62.08;99319.84;10479977;28;20033;-72
2022/07/25 20:49:38;;;;;;;8.77;1.30;;;;;;;19.52;62.09;99310.28;10479645;28;20064;-72
2022/07/25 20:54:41;;;;;;;8.82;1.50;;;;;;;19.48;61.99;99306.00;10483789;28;20059;-72
2022/07/25 20:59:43;;;;;;;7.90;1.65;;;;;;;19.48;62.42;99306.00;10486041;28;20090;-72
2022/07/25 21:04:47;;;;;;;11.45;1.65;;;;;;;19.47;62.30;99306.09;10486187;28;20116;-72
2022/07/25 21:09:48;;;;;;;6.07;1.42;;;;;;;19.47;62.63;99312.28;10486053;28;20136;-72
2022/07/25 21:14:50;;;;;;;10.13;1.60;;;;;;;19.40;62.74;99294.88;10477663;28;20412;-73
2022/07/25 21:19:51;;;;;;;11.13;1.60;;;;;;;19.37;62.83;99287.06;10484888;28;20480;-73
2022/07/25 21:24:53;;;;;;;14.15;2.13;;;;;;;19.34;63.21;99287.19;10485638;28;20050;-72
2022/07/25 21:29:55;;;;;;;10.40;2.00;;;;;;;19.29;63.14;99274.13;10484813;28;20044;-73
2022/07/25 21:34:56;;;;;;;7.72;1.55;;;;;;;19.27;63.14;99275.09;10485516;28;20514;-72
2022/07/25 21:39:58;;;;;;;6.53;1.60;;;;;;;19.25;63.31;99272.50;10485470;28;20047;-72
2022/07/25 21:45:00;;;;;;;5.65;1.77;;;;;;;19.26;63.43;99290.19;10485443;28;20037;-73
2022/07/25 21:55:25;;;;;;;9.75;2.30;;;;;;;19.20;63.57;99279.78;10480821;28;20040;-72
2022/07/25 22:00:27;;;;;;;12.63;2.40;;;;;;;19.17;63.86;99269.31;10492258;28;20041;-72
2022/07/25 22:05:33;;;;;;;10.70;2.03;;;;;;;19.18;64.17;99285.16;10484568;28;20126;-72
2022/07/25 22:10:35;;;;;;;8.63;1.70;;;;;;;19.19;64.25;99297.50;10483730;28;20059;-73
2022/07/25 22:15:37;;;;;;;7.05;1.77;;;;;;;19.14;64.41;99280.94;10483510;28;20033;-72
2022/07/25 22:20:38;;;;;;;10.13;1.90;;;;;;;19.14;64.29;99296.84;10482518;28;20682;-70
2022/07/25 22:25:40;;;;;;;9.60;1.58;;;;;;;19.15;64.68;99300.38;10484313;28;20039;-73
2022/07/25 22:30:41;;;;;;;11.15;2.22;;;;;;;19.12;65.07;99298.69;10483530;28;20461;-72
2022/07/25 22:35:43;;;;;;;4.50;1.35;;;;;;;19.05;64.85;99289.25;10483619;28;20051;-72
2022/07/25 22:40:45;;;;;;;11.85;1.90;;;;;;;19.06;65.30;99293.66;10482684;28;20044;-72
2022/07/25 22:45:46;;;;;;;10.88;2.05;;;;;;;19.02;65.42;99292.03;10483575;28;20258;-72
2022/07/25 22:50:48;;;;;;;9.60;2.30;;;;;;;18.95;65.57;99264.94;10482456;28;20050;-72
2022/07/25 22:55:49;;;;;;;13.98;2.60;;;;;;;18.96;65.57;99279.91;10482632;28;20046;-72
2022/07/25 23:00:51;;;;;;;11.52;2.60;;;;;;;18.93;65.78;99263.25;10472561;28;20118;-72
2022/07/25 23:05:53;;;;;;;11.88;3.08;;;;;;;18.86;66.06;99254.69;10477480;28;20045;-73
2022/07/25 23:10:56;;;;;;;15.23;2.50;;;;;;;18.77;65.89;99220.59;10481222;28;20132;-72
2022/07/25 23:15:58;;;;;;;13.65;2.60;;;;;;;18.70;66.36;99204.06;10481702;28;20036;-72
2022/07/25 23:20:59;;;;;;;14.20;2.38;;;;;;;18.68;66.58;99203.25;10481727;28;20127;-72
2022/07/25 23:26:01;;;;;;;8.82;1.88;;;;;;;18.57;66.27;99171.03;10482223;28;20040;-72
2022/07/25 23:31:03;;;;;;;14.85;2.60;;;;;;;18.41;67.01;99121.31;10481466;28;20507;-72
2022/07/25 23:36:05;;;;;;;8.48;1.80;;;;;;;18.36;67.19;99112.72;10475486;28;20484;-72
2022/07/25 23:41:06;;;;;;;12.40;2.00;;;;;;;18.28;67.20;99081.22;10480947;28;20050;-72
2022/07/25 23:46:08;;;;;;;12.18;2.10;;;;;;;18.21;67.07;99066.53;10479940;28;20456;-72
2022/07/25 23:51:09;;;;;;;8.57;1.92;;;;;;;18.15;67.78;99046.44;10480863;28;20124;-72
2022/07/25 23:56:12;;;;;;;10.60;2.25;;;;;;;18.12;67.74;99051.00;10481888;28;20072;-72
